Lagunita, New Mexico
Current Conditions -  °F | °C
As of 11:53 PM on Saturday 22 Nov 2014 (Local Time) from KCQC Reporting Station
Clear Clear  
Wind Chill: 29°   Ceiling: Unl
Heat Index: 38°   Visibility: 10mi
Dew Point: 16°   Wind: 15mph
Humidity: 41%   Direction: 290°WNW
Pressure: 29.8"   Gusts: NA
Location:  35.2352°N, 105.52°W
Report Text: KCQC 230653Z AUTO 29013KT 10SM CLR 03/M09 A2980 RMK AO2 SLP048 T00331089 401111028
Loading
Personal Weather Stations






























Interactive Weather Map New forecast layout! Learn more

10-Day Weather Forecast

Advertisements
Track Severe Weather on mobile